Time;durP1;ratioP1;P1;durP2;ratioP2;P2;SDS_P1;SDS_P2;PMS_P1;PMS_P2;Temp;Humidity;BMP_temperature;BMP_pressure;BME280_temperature;BME280_humidity;BME280_pressure;Samples;Min_cycle;Max_cycle;Signal;HPM_P1;HPM_P2
2022/04/21 00:01:31;;;;;;;243.67;92.33;;;;;;;;;;5057875;28;20481;-74
2022/04/21 00:04:00;;;;;;;292.17;95.30;;;;;;;;;;5058129;28;20449;-75
2022/04/21 00:06:28;;;;;;;326.93;89.13;;;;;;;;;;5057946;28;20457;-74
2022/04/21 00:08:55;;;;;;;288.97;91.30;;;;;;;;;;5058155;28;20460;-74
2022/04/21 00:11:26;;;;;;;291.17;89.20;;;;;;;;;;5058351;28;20449;-73
2022/04/21 00:13:54;;;;;;;253.90;89.23;;;;;;;;;;5057490;28;20450;-73
2022/04/21 00:16:21;;;;;;;285.70;91.57;;;;;;;;;;5056065;28;20849;-73
2022/04/21 00:18:49;;;;;;;335.00;95.23;;;;;;;;;;5056496;28;20462;-73
2022/04/21 00:21:19;;;;;;;303.60;91.97;;;;;;;;;;5055980;28;20528;-74
2022/04/21 00:23:46;;;;;;;285.50;91.50;;;;;;;;;;5055680;28;20529;-73
2022/04/21 00:26:15;;;;;;;273.93;90.50;;;;;;;;;;5055814;28;20441;-74
2022/04/21 00:28:43;;;;;;;279.13;90.37;;;;;;;;;;5056279;28;20889;-74
2022/04/21 00:31:11;;;;;;;304.07;91.97;;;;;;;;;;5056328;28;20540;-73
2022/04/21 00:33:39;;;;;;;276.50;85.20;;;;;;;;;;5056927;28;20519;-73
2022/04/21 00:36:07;;;;;;;318.43;93.87;;;;;;;;;;5056392;28;20935;-74
2022/04/21 00:38:38;;;;;;;269.73;90.57;;;;;;;;;;5056568;28;20884;-74
2022/04/21 00:41:05;;;;;;;295.50;90.63;;;;;;;;;;5056573;28;20460;-75
2022/04/21 00:43:33;;;;;;;305.00;90.47;;;;;;;;;;5056792;28;20566;-73
2022/04/21 00:46:01;;;;;;;299.00;86.50;;;;;;;;;;5055914;28;20861;-73
2022/04/21 00:48:29;;;;;;;304.93;85.87;;;;;;;;;;5056695;28;20512;-73
2022/04/21 00:51:00;;;;;;;332.90;91.80;;;;;;;;;;5056002;28;20450;-74
2022/04/21 00:56:14;;;;;;;267.27;90.23;;;;;;;;;;5014505;28;20462;-73
2022/04/21 00:58:47;;;;;;;306.90;87.87;;;;;;;;;;5014358;28;20465;-73
2022/04/21 01:03:56;;;;;;;296.60;89.47;;;;;;;;;;5054549;28;20461;-73
2022/04/21 01:06:27;;;;;;;329.13;85.47;;;;;;;;;;5055515;28;20488;-73
2022/04/21 01:08:55;;;;;;;303.90;89.43;;;;;;;;;;5054480;28;20869;-72
2022/04/21 01:11:24;;;;;;;277.30;87.30;;;;;;;;;;5055295;28;20450;-72
2022/04/21 01:13:51;;;;;;;346.13;90.60;;;;;;;;;;5054393;28;20457;-72
2022/04/21 01:16:19;;;;;;;301.60;84.77;;;;;;;;;;5055698;28;20627;-72
2022/04/21 01:18:52;;;;;;;303.50;88.80;;;;;;;;;;5054867;28;20449;-72
2022/04/21 01:21:21;;;;;;;209.53;78.80;;;;;;;;;;5054916;28;20930;-72
2022/04/21 01:23:48;;;;;;;363.60;91.60;;;;;;;;;;5054881;28;20519;-72
2022/04/21 01:26:17;;;;;;;351.20;84.17;;;;;;;;;;5054952;28;20453;-73
2022/04/21 01:28:45;;;;;;;349.40;88.20;;;;;;;;;;5054974;28;20539;-74
2022/04/21 01:31:13;;;;;;;349.23;84.10;;;;;;;;;;5055735;28;20453;-73
2022/04/21 01:33:41;;;;;;;355.33;85.93;;;;;;;;;;5054992;28;20452;-73
2022/04/21 01:36:17;;;;;;;353.50;90.27;;;;;;;;;;5054877;28;20448;-73
2022/04/21 01:41:32;;;;;;;356.93;90.73;;;;;;;;;;5054153;28;20839;-73
2022/04/21 01:44:03;;;;;;;360.30;88.73;;;;;;;;;;5054481;28;20487;-73
2022/04/21 01:46:30;;;;;;;355.57;87.40;;;;;;;;;;5054037;28;20461;-73
2022/04/21 01:48:59;;;;;;;358.93;88.10;;;;;;;;;;5054447;28;20453;-73
2022/04/21 01:51:27;;;;;;;367.23;93.90;;;;;;;;;;5054545;28;20457;-73
2022/04/21 01:53:57;;;;;;;358.47;89.37;;;;;;;;;;5054642;28;20776;-72
2022/04/21 01:56:25;;;;;;;347.90;83.57;;;;;;;;;;5054354;28;20510;-72
2022/04/21 01:58:53;;;;;;;349.83;85.47;;;;;;;;;;5054370;28;20761;-72
2022/04/21 02:01:20;;;;;;;353.70;85.37;;;;;;;;;;5055031;28;20519;-72
2022/04/21 02:03:48;;;;;;;349.30;87.13;;;;;;;;;;5054648;28;20603;-72
2022/04/21 02:06:16;;;;;;;361.73;91.47;;;;;;;;;;5054919;28;20849;-72
2022/04/21 02:08:44;;;;;;;352.47;85.73;;;;;;;;;;5054785;28;20454;-73
2022/04/21 02:11:14;;;;;;;356.13;88.87;;;;;;;;;;5053797;28;20562;-72
2022/04/21 02:13:41;;;;;;;356.13;87.27;;;;;;;;;;5054373;28;20484;-72
2022/04/21 02:16:09;;;;;;;353.90;85.37;;;;;;;;;;5055887;28;20457;-73
2022/04/21 02:18:37;;;;;;;351.47;86.50;;;;;;;;;;5055207;28;20449;-73
2022/04/21 02:21:05;;;;;;;352.83;88.50;;;;;;;;;;5054865;28;20536;-73
2022/04/21 02:23:32;;;;;;;351.90;84.63;;;;;;;;;;5055782;28;20484;-74
2022/04/21 02:26:01;;;;;;;352.80;89.13;;;;;;;;;;5054378;28;20463;-73
2022/04/21 02:28:34;;;;;;;358.87;92.00;;;;;;;;;;5055347;28;20452;-72
2022/04/21 02:31:02;;;;;;;341.30;83.00;;;;;;;;;;5057409;28;20449;-73
2022/04/21 02:33:30;;;;;;;358.77;87.77;;;;;;;;;;5058562;28;20446;-73
2022/04/21 02:35:58;;;;;;;356.57;86.20;;;;;;;;;;5058365;28;20863;-73
2022/04/21 02:38:26;;;;;;;356.33;86.63;;;;;;;;;;5058329;28;21018;-73
2022/04/21 02:40:54;;;;;;;346.93;84.30;;;;;;;;;;5057953;28;20759;-73
2022/04/21 02:43:21;;;;;;;349.77;87.57;;;;;;;;;;5058303;28;20511;-73
2022/04/21 02:45:50;;;;;;;348.17;87.67;;;;;;;;;;5058154;28;20497;-73
2022/04/21 02:48:21;;;;;;;343.10;84.10;;;;;;;;;;5057854;28;20473;-74
2022/04/21 02:50:50;;;;;;;337.00;84.40;;;;;;;;;;5058183;28;20446;-73
2022/04/21 02:57:19;;;;;;;355.67;89.20;;;;;;;;;;5057863;28;20453;-73
2022/04/21 02:58:51;;;;;;;341.57;84.93;;;;;;;;;;5057674;28;20440;-74
2022/04/21 03:01:21;;;;;;;347.47;84.63;;;;;;;;;;5057550;28;20507;-73
2022/04/21 03:03:49;;;;;;;337.13;86.53;;;;;;;;;;5057853;28;20477;-74
2022/04/21 03:06:16;;;;;;;345.37;82.23;;;;;;;;;;5058641;28;20496;-74
2022/04/21 03:08:44;;;;;;;352.70;88.97;;;;;;;;;;5058556;28;20441;-74
2022/04/21 03:11:12;;;;;;;338.13;85.87;;;;;;;;;;5058337;28;20493;-73
2022/04/21 03:13:41;;;;;;;340.93;84.87;;;;;;;;;;5058045;28;20452;-74
2022/04/21 03:16:10;;;;;;;346.70;86.07;;;;;;;;;;5057618;28;20465;-74
2022/04/21 03:18:39;;;;;;;342.23;84.87;;;;;;;;;;5057665;28;20932;-73
2022/04/21 03:26:37;;;;;;;350.10;88.17;;;;;;;;;;5056781;28;20494;-74
2022/04/21 03:29:06;;;;;;;343.20;82.53;;;;;;;;;;5057150;28;20507;-73
2022/04/21 03:31:36;;;;;;;336.17;85.23;;;;;;;;;;5057884;28;20472;-74
2022/04/21 03:34:05;;;;;;;333.80;82.40;;;;;;;;;;5056373;28;20441;-74
2022/04/21 03:36:33;;;;;;;350.43;87.00;;;;;;;;;;5057479;28;20468;-74
2022/04/21 03:39:02;;;;;;;335.10;82.27;;;;;;;;;;5057318;28;20536;-74
2022/04/21 03:41:33;;;;;;;339.97;85.03;;;;;;;;;;5056856;28;20465;-74
2022/04/21 03:44:02;;;;;;;348.50;89.57;;;;;;;;;;5056725;28;20481;-74
2022/04/21 03:46:35;;;;;;;347.40;85.97;;;;;;;;;;5057227;28;20483;-74
2022/04/21 03:49:05;;;;;;;345.63;85.63;;;;;;;;;;5056781;28;20468;-74
2022/04/21 03:51:34;;;;;;;354.00;90.97;;;;;;;;;;5057699;28;20449;-74
2022/04/21 03:54:04;;;;;;;353.77;96.30;;;;;;;;;;5057817;28;20479;-73
2022/04/21 03:56:33;;;;;;;347.73;85.87;;;;;;;;;;5056223;28;20469;-73
2022/04/21 03:59:02;;;;;;;353.70;87.50;;;;;;;;;;5057311;28;20936;-74
2022/04/21 04:01:32;;;;;;;343.70;88.70;;;;;;;;;;5056676;28;20465;-73
2022/04/21 04:04:00;;;;;;;345.53;90.47;;;;;;;;;;5056752;28;20485;-73
2022/04/21 04:12:04;;;;;;;347.80;85.57;;;;;;;;;;5056508;28;20486;-73
2022/04/21 04:14:33;;;;;;;336.37;83.20;;;;;;;;;;5056144;28;20449;-73
2022/04/21 04:17:02;;;;;;;344.90;89.40;;;;;;;;;;5056340;28;20462;-72
2022/04/21 04:19:31;;;;;;;349.00;86.30;;;;;;;;;;5056653;28;20842;-72
2022/04/21 04:22:04;;;;;;;339.50;83.77;;;;;;;;;;5056409;28;20457;-73
2022/04/21 04:24:32;;;;;;;348.27;92.30;;;;;;;;;;5056276;28;20779;-73
2022/04/21 04:27:00;;;;;;;353.07;89.00;;;;;;;;;;5056516;28;20464;-72
2022/04/21 04:29:28;;;;;;;345.07;89.73;;;;;;;;;;5056687;28;20477;-73
2022/04/21 04:31:57;;;;;;;344.27;86.37;;;;;;;;;;5055694;28;20523;-73
2022/04/21 04:34:25;;;;;;;345.53;86.50;;;;;;;;;;5055579;28;20541;-74
2022/04/21 04:36:53;;;;;;;342.33;85.13;;;;;;;;;;5055820;28;20458;-73
2022/04/21 04:39:24;;;;;;;340.53;83.80;;;;;;;;;;5055854;28;20511;-73
2022/04/21 04:44:37;;;;;;;338.23;82.17;;;;;;;;;;5055223;28;20556;-73
2022/04/21 04:47:03;;;;;;;338.67;84.07;;;;;;;;;;5057142;28;20456;-73
2022/04/21 04:49:31;;;;;;;349.87;86.50;;;;;;;;;;5055984;28;20472;-73
2022/04/21 04:51:59;;;;;;;349.20;86.40;;;;;;;;;;5053291;28;20461;-73
2022/04/21 04:54:31;;;;;;;341.00;84.77;;;;;;;;;;5051982;28;20457;-73
2022/04/21 04:56:59;;;;;;;340.10;84.77;;;;;;;;;;5055052;28;20948;-73
2022/04/21 04:59:29;;;;;;;351.40;90.83;;;;;;;;;;5054869;28;20457;-73
2022/04/21 05:01:58;;;;;;;343.93;90.20;;;;;;;;;;5054845;28;20470;-73
2022/04/21 05:04:26;;;;;;;354.43;95.40;;;;;;;;;;5054820;28;20528;-73
2022/04/21 05:06:54;;;;;;;344.27;86.30;;;;;;;;;;5054731;28;20609;-73
2022/04/21 05:09:23;;;;;;;357.03;96.13;;;;;;;;;;5054804;28;20857;-73
2022/04/21 05:11:53;;;;;;;354.10;89.37;;;;;;;;;;5054570;28;20519;-73
2022/04/21 05:14:21;;;;;;;355.73;95.37;;;;;;;;;;5037723;28;20468;-73
2022/04/21 05:16:49;;;;;;;355.77;91.33;;;;;;;;;;5059613;28;20483;-73
2022/04/21 05:19:17;;;;;;;350.80;95.63;;;;;;;;;;5074030;28;20464;-73
2022/04/21 05:21:46;;;;;;;348.10;90.77;;;;;;;;;;5068608;28;20808;-73
2022/04/21 05:24:19;;;;;;;347.57;93.37;;;;;;;;;;5052853;28;20481;-73
2022/04/21 05:26:51;;;;;;;357.50;97.60;;;;;;;;;;5051834;28;20461;-73
2022/04/21 05:32:06;;;;;;;350.17;92.80;;;;;;;;;;5053310;28;20444;-72
2022/04/21 05:34:41;;;;;;;348.53;95.87;;;;;;;;;;5052689;28;20446;-72
2022/04/21 05:37:09;;;;;;;349.57;92.40;;;;;;;;;;5052069;28;20449;-73
2022/04/21 05:39:37;;;;;;;358.63;93.17;;;;;;;;;;5052060;28;20880;-72
2022/04/21 05:42:09;;;;;;;359.90;99.77;;;;;;;;;;5048345;28;21322;-72
2022/04/21 05:44:40;;;;;;;380.33;102.40;;;;;;;;;;5048173;28;20474;-72
2022/04/21 05:47:11;;;;;;;356.80;97.57;;;;;;;;;;5031701;28;20490;-72
2022/04/21 05:49:40;;;;;;;353.40;92.43;;;;;;;;;;5032962;28;20542;-71
2022/04/21 05:52:09;;;;;;;361.50;97.00;;;;;;;;;;5055734;28;20853;-72
2022/04/21 05:54:37;;;;;;;361.20;95.23;;;;;;;;;;5067142;28;20861;-71
2022/04/21 05:57:06;;;;;;;353.10;100.87;;;;;;;;;;5051413;28;20727;-72
2022/04/21 05:59:40;;;;;;;360.80;103.10;;;;;;;;;;5050338;28;20453;-71
2022/04/21 06:02:08;;;;;;;362.97;97.70;;;;;;;;;;5050470;28;20956;-71
2022/04/21 06:04:38;;;;;;;354.57;98.40;;;;;;;;;;5053523;28;20481;-72
2022/04/21 06:07:06;;;;;;;356.70;96.43;;;;;;;;;;5056182;28;20693;-71
2022/04/21 06:09:36;;;;;;;356.17;96.97;;;;;;;;;;5054453;28;20887;-70
2022/04/21 06:12:04;;;;;;;353.30;96.30;;;;;;;;;;5055064;28;20737;-70
2022/04/21 06:14:38;;;;;;;362.53;99.57;;;;;;;;;;5054303;28;20445;-71
2022/04/21 06:17:10;;;;;;;355.80;98.80;;;;;;;;;;5055777;28;20456;-71
2022/04/21 06:19:39;;;;;;;367.10;106.87;;;;;;;;;;5059649;28;20822;-71
2022/04/21 06:22:07;;;;;;;366.37;101.10;;;;;;;;;;5057850;28;20566;-70
2022/04/21 06:24:35;;;;;;;359.87;94.80;;;;;;;;;;5062037;28;20481;-71
2022/04/21 06:27:06;;;;;;;355.17;96.27;;;;;;;;;;5065197;28;20476;-70
2022/04/21 06:29:34;;;;;;;357.27;97.23;;;;;;;;;;5064997;28;20448;-70
2022/04/21 06:32:04;;;;;;;372.10;102.43;;;;;;;;;;5066722;28;20746;-70
2022/04/21 06:34:36;;;;;;;359.50;102.17;;;;;;;;;;5063174;28;20452;-70
2022/04/21 06:37:04;;;;;;;357.97;97.10;;;;;;;;;;5068759;28;20948;-70
2022/04/21 06:39:34;;;;;;;359.40;97.97;;;;;;;;;;5064880;28;21040;-70
2022/04/21 06:42:06;;;;;;;365.47;100.60;;;;;;;;;;5066872;28;20457;-71
2022/04/21 06:50:24;;;;;;;358.63;94.60;;;;;;;;;;5061988;28;20437;-72
2022/04/21 06:52:52;;;;;;;363.97;100.70;;;;;;;;;;5067924;28;20888;-71
2022/04/21 06:55:20;;;;;;;366.50;104.87;;;;;;;;;;5058811;28;20449;-72
2022/04/21 06:57:48;;;;;;;366.50;103.00;;;;;;;;;;5075102;28;20457;-72
2022/04/21 07:00:18;;;;;;;358.97;100.40;;;;;;;;;;5077282;28;20543;-72
2022/04/21 07:02:51;;;;;;;375.87;113.03;;;;;;;;;;5054046;28;20467;-72
2022/04/21 07:05:24;;;;;;;362.87;102.43;;;;;;;;;;5056712;28;20481;-72
2022/04/21 07:07:59;;;;;;;371.70;107.33;;;;;;;;;;5064846;28;20907;-72
2022/04/21 07:10:32;;;;;;;363.40;97.10;;;;;;;;;;5073116;28;20437;-72
2022/04/21 07:13:14;;;;;;;366.43;105.83;;;;;;;;;;5056088;28;20739;-72
2022/04/21 07:15:49;;;;;;;370.60;114.83;;;;;;;;;;5059903;28;20511;-72
2022/04/21 07:18:27;;;;;;;368.50;111.10;;;;;;;;;;5058849;28;20460;-71
2022/04/21 07:20:58;;;;;;;365.47;109.67;;;;;;;;;;5053784;28;20460;-71
2022/04/21 07:23:26;;;;;;;363.97;105.33;;;;;;;;;;5058579;28;20457;-71
2022/04/21 07:25:57;;;;;;;359.30;100.27;;;;;;;;;;5054930;28;20723;-71
2022/04/21 07:28:25;;;;;;;366.77;110.40;;;;;;;;;;5058115;28;20469;-71
2022/04/21 07:30:54;;;;;;;364.00;105.00;;;;;;;;;;5060918;28;20442;-72
2022/04/21 07:33:22;;;;;;;364.90;109.77;;;;;;;;;;5058669;28;20527;-71
2022/04/21 07:35:58;;;;;;;368.33;114.23;;;;;;;;;;5055828;28;20465;-71
2022/04/21 07:38:48;;;;;;;363.33;109.07;;;;;;;;;;5047951;28;20475;-71
2022/04/21 07:41:38;;;;;;;365.67;106.80;;;;;;;;;;5064708;28;20563;-71
2022/04/21 07:44:10;;;;;;;364.47;103.67;;;;;;;;;;5063138;28;20480;-71
2022/04/21 07:46:42;;;;;;;366.83;107.90;;;;;;;;;;5067344;28;20441;-71
2022/04/21 07:54:41;;;;;;;374.27;113.03;;;;;;;;;;5062740;28;20448;-71
2022/04/21 07:57:09;;;;;;;376.23;121.53;;;;;;;;;;5061995;28;20452;-71
2022/04/21 08:00:04;;;;;;;378.33;121.23;;;;;;;;;;5060872;28;20445;-70
2022/04/21 08:02:32;;;;;;;373.17;117.10;;;;;;;;;;5035378;28;20454;-71
2022/04/21 08:05:00;;;;;;;374.40;118.27;;;;;;;;;;5038005;28;20481;-70
2022/04/21 08:07:32;;;;;;;370.53;122.73;;;;;;;;;;5056760;28;20730;-71
2022/04/21 08:10:12;;;;;;;379.30;127.63;;;;;;;;;;5068149;28;20455;-71
2022/04/21 08:12:42;;;;;;;374.90;123.67;;;;;;;;;;5070975;28;20465;-71
2022/04/21 08:15:11;;;;;;;386.53;126.33;;;;;;;;;;5054110;28;20480;-72
2022/04/21 08:17:39;;;;;;;374.20;120.67;;;;;;;;;;5055145;28;20733;-71
2022/04/21 08:20:10;;;;;;;387.87;135.73;;;;;;;;;;5050939;28;20479;-71
2022/04/21 08:22:44;;;;;;;381.50;125.67;;;;;;;;;;5054353;28;20469;-70
2022/04/21 08:33:33;;;;;;;382.63;129.27;;;;;;;;;;5059747;28;20444;-70
2022/04/21 08:36:02;;;;;;;380.23;123.23;;;;;;;;;;5053944;28;20473;-70
2022/04/21 08:38:37;;;;;;;379.00;127.47;;;;;;;;;;5053222;28;20544;-71
2022/04/21 08:41:08;;;;;;;379.53;129.60;;;;;;;;;;5034072;28;20902;-71
2022/04/21 08:43:37;;;;;;;377.93;125.50;;;;;;;;;;5034542;28;20477;-72
2022/04/21 08:46:05;;;;;;;380.47;131.63;;;;;;;;;;5046068;28;20476;-71
2022/04/21 08:48:38;;;;;;;392.77;141.47;;;;;;;;;;5058712;28;20560;-70
2022/04/21 08:51:13;;;;;;;386.23;140.33;;;;;;;;;;5053412;28;21309;-70
2022/04/21 08:53:45;;;;;;;379.63;130.77;;;;;;;;;;5058512;28;20535;-71
2022/04/21 08:56:18;;;;;;;377.30;126.07;;;;;;;;;;5053977;28;20826;-70
2022/04/21 08:58:50;;;;;;;386.07;137.03;;;;;;;;;;5049625;28;20833;-71
2022/04/21 09:01:35;;;;;;;384.50;139.63;;;;;;;;;;5051480;28;20563;-71
2022/04/21 09:04:05;;;;;;;390.17;143.90;;;;;;;;;;5038337;28;20478;-72
2022/04/21 09:06:40;;;;;;;383.90;141.80;;;;;;;;;;5050152;28;20496;-72
2022/04/21 09:09:21;;;;;;;387.43;138.07;;;;;;;;;;5052917;28;20798;-70
2022/04/21 09:12:00;;;;;;;388.43;133.13;;;;;;;;;;5055919;28;20570;-71
2022/04/21 09:14:29;;;;;;;392.00;140.83;;;;;;;;;;5047176;28;20457;-70
2022/04/21 09:17:08;;;;;;;379.80;136.07;;;;;;;;;;5058251;28;20444;-70
2022/04/21 09:19:37;;;;;;;385.30;140.13;;;;;;;;;;5062671;28;20507;-71
2022/04/21 09:22:06;;;;;;;390.97;146.00;;;;;;;;;;5048969;28;20457;-72
2022/04/21 09:24:34;;;;;;;385.53;142.83;;;;;;;;;;5043357;28;20597;-71
2022/04/21 09:27:04;;;;;;;389.27;141.87;;;;;;;;;;5034202;28;20502;-71
2022/04/21 09:29:33;;;;;;;388.47;141.57;;;;;;;;;;5038135;28;20924;-72
2022/04/21 09:32:10;;;;;;;389.03;148.23;;;;;;;;;;5040047;28;20568;-72
2022/04/21 09:34:39;;;;;;;386.63;139.73;;;;;;;;;;5033174;28;21030;-71
2022/04/21 09:37:16;;;;;;;393.77;152.67;;;;;;;;;;5033537;28;20470;-70
2022/04/21 09:39:50;;;;;;;401.90;159.97;;;;;;;;;;5047833;28;20474;-69
2022/04/21 09:42:26;;;;;;;395.83;153.37;;;;;;;;;;5033940;28;20501;-70
2022/04/21 09:50:49;;;;;;;394.93;158.63;;;;;;;;;;5034457;28;21026;-72
2022/04/21 09:53:23;;;;;;;399.70;156.53;;;;;;;;;;5035038;28;20470;-71
2022/04/21 09:56:08;;;;;;;397.00;165.93;;;;;;;;;;5036493;28;20735;-73
2022/04/21 09:58:41;;;;;;;393.03;157.03;;;;;;;;;;5035324;28;21003;-70
2022/04/21 10:01:11;;;;;;;398.33;172.30;;;;;;;;;;5041273;28;20457;-70
2022/04/21 10:03:45;;;;;;;397.47;171.43;;;;;;;;;;5016955;28;20467;-70
2022/04/21 10:06:22;;;;;;;397.70;171.13;;;;;;;;;;5022338;28;20490;-70
2022/04/21 10:08:52;;;;;;;397.73;174.77;;;;;;;;;;5044430;28;20437;-70
2022/04/21 10:11:28;;;;;;;399.20;180.90;;;;;;;;;;5053029;28;20862;-71
2022/04/21 10:13:58;;;;;;;394.47;163.07;;;;;;;;;;5055924;28;20829;-70
2022/04/21 10:16:31;;;;;;;395.77;178.33;;;;;;;;;;5055852;28;20537;-70
2022/04/21 10:19:04;;;;;;;396.23;173.87;;;;;;;;;;5054911;28;20453;-71
2022/04/21 10:21:34;;;;;;;392.30;163.00;;;;;;;;;;5068352;28;20452;-70
2022/04/21 10:24:06;;;;;;;401.80;178.10;;;;;;;;;;5075840;28;20845;-72
2022/04/21 10:26:40;;;;;;;394.17;153.93;;;;;;;;;;5055543;28;20472;-71
2022/04/21 10:29:17;;;;;;;400.90;172.27;;;;;;;;;;5055486;28;20488;-70
2022/04/21 10:31:51;;;;;;;385.33;151.27;;;;;;;;;;5040479;28;20587;-71
2022/04/21 10:34:40;;;;;;;398.57;169.07;;;;;;;;;;5035218;28;20878;-71
2022/04/21 10:37:14;;;;;;;392.10;157.90;;;;;;;;;;5050695;28;20519;-71
2022/04/21 10:40:04;;;;;;;397.70;167.33;;;;;;;;;;5054643;28;20449;-71
2022/04/21 10:42:32;;;;;;;400.97;179.70;;;;;;;;;;5049603;28;20537;-70
2022/04/21 10:45:13;;;;;;;393.80;164.10;;;;;;;;;;5044159;28;20497;-71
2022/04/21 10:47:44;;;;;;;397.03;170.70;;;;;;;;;;5034504;28;20469;-70
2022/04/21 10:50:18;;;;;;;405.13;192.47;;;;;;;;;;5053901;28;20457;-70
2022/04/21 10:58:51;;;;;;;395.63;149.73;;;;;;;;;;5052618;28;20491;-71
2022/04/21 11:01:31;;;;;;;397.67;166.27;;;;;;;;;;5052153;28;20748;-72
2022/04/21 11:04:07;;;;;;;386.07;135.93;;;;;;;;;;5042888;28;20811;-72
2022/04/21 11:06:41;;;;;;;399.87;163.57;;;;;;;;;;5053182;28;20549;-71
2022/04/21 11:09:10;;;;;;;396.17;157.60;;;;;;;;;;5034992;28;20450;-72
2022/04/21 11:11:47;;;;;;;401.27;170.77;;;;;;;;;;5054113;28;20888;-72
2022/04/21 11:14:33;;;;;;;397.30;160.20;;;;;;;;;;5051716;28;20530;-72
2022/04/21 11:17:02;;;;;;;389.03;145.10;;;;;;;;;;5047697;28;20728;-72
2022/04/21 11:19:35;;;;;;;402.87;159.63;;;;;;;;;;5061491;28;20445;-72
2022/04/21 11:22:03;;;;;;;391.67;144.60;;;;;;;;;;5054776;28;20469;-72
2022/04/21 11:24:47;;;;;;;396.07;170.50;;;;;;;;;;5057140;28;20555;-72
2022/04/21 11:30:49;;;;;;;391.37;160.63;;;;;;;;;;5006160;28;20453;-74
2022/04/21 11:33:22;;;;;;;388.40;154.23;;;;;;;;;;5053450;28;20900;-71
2022/04/21 11:35:50;;;;;;;386.30;149.97;;;;;;;;;;5051003;28;20516;-71
2022/04/21 11:38:21;;;;;;;388.23;146.47;;;;;;;;;;5054145;28;20468;-72
2022/04/21 11:40:50;;;;;;;388.60;151.73;;;;;;;;;;5053019;28;20481;-72
2022/04/21 11:43:20;;;;;;;388.50;151.70;;;;;;;;;;5053569;28;20923;-72
2022/04/21 11:45:58;;;;;;;380.80;138.87;;;;;;;;;;5052908;28;20492;-71
2022/04/21 11:48:37;;;;;;;383.83;142.10;;;;;;;;;;5035989;28;20457;-72
2022/04/21 11:51:08;;;;;;;392.83;160.80;;;;;;;;;;5043294;28;20485;-71
2022/04/21 11:53:36;;;;;;;395.53;152.70;;;;;;;;;;5053109;28;20912;-72
2022/04/21 11:56:04;;;;;;;395.33;163.10;;;;;;;;;;5050719;28;20457;-72
2022/04/21 11:58:38;;;;;;;398.53;168.80;;;;;;;;;;5037877;28;20457;-73
2022/04/21 12:06:43;;;;;;;394.13;162.63;;;;;;;;;;5069353;28;20533;-73
2022/04/21 12:09:15;;;;;;;396.20;167.67;;;;;;;;;;5054575;28;20461;-72
2022/04/21 12:11:45;;;;;;;395.60;180.07;;;;;;;;;;5065959;28;20503;-71
2022/04/21 12:14:20;;;;;;;401.20;178.80;;;;;;;;;;5064731;28;20464;-73
2022/04/21 12:16:52;;;;;;;412.30;192.60;;;;;;;;;;5052901;28;20779;-71
2022/04/21 12:19:33;;;;;;;403.10;194.20;;;;;;;;;;5046560;28;20468;-72
2022/04/21 12:22:05;;;;;;;407.63;190.20;;;;;;;;;;5049118;28;20453;-71
2022/04/21 12:24:37;;;;;;;400.10;175.27;;;;;;;;;;5053812;28;20817;-70
2022/04/21 12:27:06;;;;;;;408.50;193.53;;;;;;;;;;5052621;28;20452;-71
2022/04/21 12:29:51;;;;;;;410.33;192.67;;;;;;;;;;5051018;28;20936;-72
2022/04/21 12:32:23;;;;;;;404.23;189.33;;;;;;;;;;5052224;28;20519;-73
2022/04/21 12:34:58;;;;;;;397.33;183.83;;;;;;;;;;5051582;28;20481;-72
2022/04/21 12:37:27;;;;;;;402.23;193.63;;;;;;;;;;5051560;28;20543;-72
2022/04/21 12:39:58;;;;;;;398.30;179.03;;;;;;;;;;5053114;28;20446;-72
2022/04/21 12:42:28;;;;;;;402.27;190.67;;;;;;;;;;5051791;28;20457;-72
2022/04/21 12:44:59;;;;;;;401.63;188.10;;;;;;;;;;5052941;28;20457;-72
2022/04/21 12:47:28;;;;;;;404.40;199.17;;;;;;;;;;5051014;28;20449;-73
2022/04/21 12:49:58;;;;;;;391.60;173.57;;;;;;;;;;5052914;28;20491;-71
2022/04/21 12:52:29;;;;;;;402.67;196.30;;;;;;;;;;5044845;28;20538;-73
2022/04/21 12:55:02;;;;;;;402.90;189.93;;;;;;;;;;5033070;28;20451;-72
2022/04/21 12:57:30;;;;;;;402.97;199.97;;;;;;;;;;5033177;28;21030;-71
2022/04/21 13:00:02;;;;;;;398.27;180.53;;;;;;;;;;5033781;28;20890;-72
2022/04/21 13:02:33;;;;;;;397.03;177.70;;;;;;;;;;5038699;28;20470;-73
2022/04/21 13:05:06;;;;;;;405.03;197.50;;;;;;;;;;5053653;28;20495;-72
2022/04/21 13:07:36;;;;;;;396.20;182.23;;;;;;;;;;5052877;28;20453;-72
2022/04/21 13:10:07;;;;;;;402.47;186.07;;;;;;;;;;5051923;28;20466;-72
2022/04/21 13:12:34;;;;;;;407.73;205.30;;;;;;;;;;5047414;28;20545;-71
2022/04/21 13:15:17;;;;;;;415.00;217.40;;;;;;;;;;5048341;28;20453;-72
2022/04/21 13:17:54;;;;;;;411.63;200.97;;;;;;;;;;5035525;28;20759;-73
2022/04/21 13:23:12;;;;;;;407.27;195.03;;;;;;;;;;5068706;28;20532;-73
2022/04/21 13:25:46;;;;;;;394.87;169.53;;;;;;;;;;5053161;28;20485;-74
2022/04/21 13:28:16;;;;;;;403.90;201.10;;;;;;;;;;5044628;28;20464;-73
2022/04/21 13:33:21;;;;;;;404.27;185.17;;;;;;;;;;5054394;28;20476;-72
2022/04/21 13:33:40;;;;;;;400.37;165.50;;;;;;;;;;5070585;28;20447;-72
2022/04/21 13:36:23;;;;;;;394.40;158.53;;;;;;;;;;5050973;28;20544;-75
2022/04/21 13:38:58;;;;;;;410.30;194.20;;;;;;;;;;5053770;28;20445;-72
2022/04/21 13:41:26;;;;;;;398.63;168.50;;;;;;;;;;5054489;28;20437;-72
2022/04/21 13:44:02;;;;;;;411.07;180.30;;;;;;;;;;5051729;28;20442;-72
2022/04/21 13:47:13;;;;;;;;;;;;;;;;;;;;;
2022/04/21 13:49:52;;;;;;;413.83;192.53;;;;;;;;;;5010244;28;20468;-72
2022/04/21 13:55:37;;;;;;;395.47;166.90;;;;;;;;;;4992573;28;20453;-72
2022/04/21 13:58:07;;;;;;;406.77;178.50;;;;;;;;;;5013083;28;20494;-73
2022/04/21 14:00:44;;;;;;;397.10;166.63;;;;;;;;;;5027829;28;20457;-73
2022/04/21 14:03:23;;;;;;;407.57;183.13;;;;;;;;;;5051557;28;20997;-73
2022/04/21 14:06:01;;;;;;;404.20;192.37;;;;;;;;;;5051937;28;20484;-73
2022/04/21 14:08:29;;;;;;;404.73;194.77;;;;;;;;;;5050545;28;20497;-73
2022/04/21 14:11:10;;;;;;;390.43;155.97;;;;;;;;;;5049216;28;20515;-73
2022/04/21 14:13:56;;;;;;;390.93;163.43;;;;;;;;;;5039015;28;20480;-73
2022/04/21 14:16:29;;;;;;;408.13;188.77;;;;;;;;;;5040616;28;20446;-72
2022/04/21 14:19:06;;;;;;;402.10;176.93;;;;;;;;;;5041135;28;20468;-71
2022/04/21 14:21:53;;;;;;;395.90;169.17;;;;;;;;;;5061813;28;20482;-72
2022/04/21 14:24:25;;;;;;;393.27;161.20;;;;;;;;;;5068364;28;20508;-72
2022/04/21 14:27:19;;;;;;;395.03;160.20;;;;;;;;;;5065871;28;20568;-73
2022/04/21 14:30:03;;;;;;;391.67;155.83;;;;;;;;;;5049652;28;20446;-74
2022/04/21 14:33:16;;;;;;;;;;;;;;;;;;;;;
2022/04/21 14:35:52;;;;;;;394.00;161.93;;;;;;;;;;5044841;28;20463;-74
2022/04/21 14:44:32;;;;;;;401.43;177.10;;;;;;;;;;5042378;28;20448;-73
2022/04/21 14:47:03;;;;;;;395.80;156.03;;;;;;;;;;5053334;28;20530;-73
2022/04/21 14:49:36;;;;;;;396.07;166.07;;;;;;;;;;5054859;28;20457;-73
2022/04/21 14:54:46;;;;;;;395.00;165.20;;;;;;;;;;5056596;28;20456;-73
2022/04/21 14:57:14;;;;;;;398.67;155.80;;;;;;;;;;5066430;28;20518;-74
2022/04/21 14:59:49;;;;;;;414.07;183.53;;;;;;;;;;5065890;28;20460;-74
2022/04/21 15:05:02;;;;;;;407.27;178.43;;;;;;;;;;5043166;28;20446;-72
2022/04/21 15:07:34;;;;;;;405.40;170.93;;;;;;;;;;5053325;28;20499;-72
2022/04/21 15:10:05;;;;;;;387.90;151.97;;;;;;;;;;5039025;28;20847;-73
2022/04/21 15:12:39;;;;;;;399.63;166.20;;;;;;;;;;5054872;28;20864;-72
2022/04/21 15:15:16;;;;;;;393.97;156.27;;;;;;;;;;5061741;28;20454;-72
2022/04/21 15:17:52;;;;;;;402.80;157.10;;;;;;;;;;5057810;28;20461;-72
2022/04/21 15:20:23;;;;;;;398.60;164.90;;;;;;;;;;5066348;28;20921;-72
2022/04/21 15:22:57;;;;;;;393.03;158.07;;;;;;;;;;5054371;28;20752;-72
2022/04/21 15:25:37;;;;;;;408.67;181.83;;;;;;;;;;5057384;28;21075;-73
2022/04/21 15:28:16;;;;;;;400.50;163.90;;;;;;;;;;5065267;28;20538;-72
2022/04/21 15:30:51;;;;;;;397.17;163.50;;;;;;;;;;5055338;28;20457;-73
2022/04/21 15:33:20;;;;;;;400.47;165.73;;;;;;;;;;5055188;28;21068;-73
2022/04/21 15:35:50;;;;;;;397.87;167.50;;;;;;;;;;5062833;28;20456;-73
2022/04/21 15:38:39;;;;;;;393.97;154.83;;;;;;;;;;5053773;28;20952;-71
2022/04/21 15:41:10;;;;;;;408.70;168.50;;;;;;;;;;5054211;28;20464;-73
2022/04/21 15:43:40;;;;;;;389.23;157.57;;;;;;;;;;5054214;28;20459;-71
2022/04/21 15:46:10;;;;;;;399.37;156.77;;;;;;;;;;5059710;28;21136;-70
2022/04/21 15:48:40;;;;;;;385.67;144.00;;;;;;;;;;5059162;28;20453;-71
2022/04/21 15:51:10;;;;;;;386.77;145.33;;;;;;;;;;5058428;28;20485;-72